createdAt,value
2023-08-07T00:02:35.837Z,90.42
2023-08-07T00:07:37.675Z,90.43
2023-08-07T00:12:39.733Z,90.51
2023-08-07T00:17:42.236Z,90.48
2023-08-07T00:22:44.033Z,90.43
2023-08-07T00:27:45.849Z,90.29
2023-08-07T00:32:49.122Z,90.49
2023-08-07T00:37:51.126Z,90.37
2023-08-07T00:42:53.001Z,90.24
2023-08-07T00:47:55.043Z,89.92
2023-08-07T00:52:57.496Z,89.94
2023-08-07T00:58:00.645Z,90.14
2023-08-07T01:03:02.887Z,90.14
2023-08-07T01:08:05.489Z,90.27
2023-08-07T01:13:25.920Z,90.26
2023-08-07T01:18:28.352Z,90.30
2023-08-07T01:23:30.387Z,90.57
2023-08-07T01:28:39.510Z,90.81
2023-08-07T01:33:52.070Z,90.73
2023-08-07T01:38:57.230Z,91.02
2023-08-07T01:43:59.594Z,90.89
2023-08-07T01:49:01.404Z,90.94
2023-08-07T01:54:03.258Z,90.98
2023-08-07T01:59:05.327Z,91.13
2023-08-07T02:04:07.194Z,91.20
2023-08-07T02:09:09.010Z,91.45
2023-08-07T02:14:10.907Z,91.33
2023-08-07T02:19:12.874Z,91.22
2023-08-07T02:24:14.858Z,91.41
2023-08-07T02:29:16.698Z,91.22
2023-08-07T02:34:18.492Z,91.20
2023-08-07T02:39:20.380Z,91.18
2023-08-07T02:44:22.458Z,91.13
2023-08-07T02:49:25.241Z,91.24
2023-08-07T02:54:28.318Z,91.38
2023-08-07T02:59:30.168Z,91.56
2023-08-07T03:04:31.997Z,91.66
2023-08-07T03:09:33.898Z,91.83
2023-08-07T03:14:36.009Z,91.90
2023-08-07T03:19:37.902Z,92.72
2023-08-07T03:24:40.093Z,93.06
2023-08-07T03:29:43.828Z,93.42
2023-08-07T03:34:48.237Z,93.21
2023-08-07T03:39:51.560Z,93.39
2023-08-07T03:44:54.457Z,94.10
2023-08-07T03:49:56.412Z,93.91
2023-08-07T03:54:58.361Z,93.44
2023-08-07T04:00:00.652Z,93.42
2023-08-07T04:05:05.161Z,92.92
2023-08-07T04:10:07.213Z,92.95
2023-08-07T04:15:11.204Z,92.57
2023-08-07T04:20:13.302Z,92.35
2023-08-07T04:25:15.305Z,92.12
2023-08-07T04:30:17.486Z,91.85
2023-08-07T04:35:19.777Z,92.02
2023-08-07T04:40:21.570Z,92.14
2023-08-07T04:45:23.555Z,91.91
2023-08-07T04:50:25.422Z,91.52
2023-08-07T04:55:27.257Z,91.00
2023-08-07T05:00:29.277Z,91.00
2023-08-07T05:05:31.159Z,91.21
2023-08-07T05:10:33.013Z,91.41
2023-08-07T05:15:34.847Z,91.17
2023-08-07T05:20:36.693Z,91.53
2023-08-07T05:25:38.957Z,91.22
2023-08-07T05:30:42.408Z,90.97
2023-08-07T05:35:44.411Z,90.81
2023-08-07T05:40:46.291Z,90.80
2023-08-07T05:45:50.269Z,90.44
2023-08-07T05:50:52.806Z,89.63
2023-08-07T05:55:54.824Z,88.61
2023-08-07T06:00:56.770Z,88.25
2023-08-07T06:05:58.627Z,88.10
2023-08-07T06:11:04.432Z,87.49
2023-08-07T06:16:07.336Z,87.24
2023-08-07T06:21:11.832Z,87.38
2023-08-07T06:26:14.239Z,87.16
2023-08-07T06:31:17.797Z,87.24
2023-08-07T06:36:19.638Z,86.92
2023-08-07T06:41:21.616Z,86.54
2023-08-07T06:46:27.951Z,86.71
2023-08-07T06:51:29.869Z,86.51
2023-08-07T06:56:31.660Z,86.78
2023-08-07T07:01:33.653Z,86.63
2023-08-07T07:06:35.645Z,86.98
2023-08-07T07:11:37.576Z,86.77
2023-08-07T07:16:39.628Z,86.80
2023-08-07T07:21:42.838Z,87.46
2023-08-07T07:26:44.679Z,87.01
2023-08-07T07:31:46.534Z,87.09
2023-08-07T07:36:48.686Z,87.34
2023-08-07T07:41:50.544Z,87.32
2023-08-07T07:46:52.512Z,86.87
2023-08-07T07:51:54.291Z,87.30
2023-08-07T07:56:56.426Z,87.11
2023-08-07T08:01:58.947Z,87.19
2023-08-07T08:07:01.095Z,87.24
2023-08-07T08:12:02.891Z,87.63
2023-08-07T08:17:05.667Z,87.11
2023-08-07T08:22:07.509Z,86.45
2023-08-07T08:27:09.322Z,86.42
2023-08-07T08:32:11.725Z,86.70
2023-08-07T08:37:13.690Z,86.20
2023-08-07T08:42:16.254Z,84.22
2023-08-07T08:47:18.266Z,84.67
2023-08-07T08:52:20.629Z,83.98
2023-08-07T08:57:23.034Z,83.56
2023-08-07T09:02:24.905Z,83.86
2023-08-07T09:07:28.222Z,83.90
2023-08-07T09:12:33.285Z,84.06
2023-08-07T09:17:41.453Z,84.24
2023-08-07T09:22:43.469Z,84.71
2023-08-07T09:27:45.459Z,84.96
2023-08-07T09:32:49.075Z,84.74
2023-08-07T09:37:52.083Z,84.01
2023-08-07T09:42:54.709Z,83.37
2023-08-07T09:48:04.385Z,84.13
2023-08-07T09:53:06.488Z,84.21
2023-08-07T09:58:13.380Z,84.22
2023-08-07T10:03:16.562Z,82.58
2023-08-07T10:08:19.564Z,80.95
2023-08-07T10:13:28.162Z,82.37
2023-08-07T10:18:30.684Z,87.18
2023-08-07T10:23:36.256Z,88.92
2023-08-07T10:28:41.786Z,90.84
2023-08-07T10:33:44.339Z,92.28
2023-08-07T10:38:49.980Z,93.02
2023-08-07T10:43:51.785Z,93.05
2023-08-07T10:49:00.782Z,92.26
2023-08-07T10:54:03.109Z,91.98
2023-08-07T10:59:12.657Z,92.77
2023-08-07T11:04:16.400Z,92.60
2023-08-07T11:09:18.213Z,92.38
2023-08-07T11:14:20.932Z,89.72
2023-08-07T11:19:23.977Z,89.06
2023-08-07T11:24:28.697Z,89.72
2023-08-07T11:29:32.113Z,89.43
2023-08-07T11:34:34.014Z,88.50
2023-08-07T11:39:43.283Z,88.28
2023-08-07T11:44:46.272Z,87.14
2023-08-07T11:49:49.094Z,86.22
2023-08-07T11:54:50.914Z,86.70
2023-08-07T11:59:53.121Z,86.80
2023-08-07T12:04:59.869Z,85.32
2023-08-07T12:10:05.343Z,84.39
2023-08-07T12:15:10.868Z,82.39
2023-08-07T12:20:12.857Z,81.45
2023-08-07T12:25:14.832Z,80.22
2023-08-07T12:30:16.876Z,79.35
2023-08-07T12:35:18.644Z,77.04
2023-08-07T12:50:31.678Z,74.10
2023-08-07T12:55:33.886Z,72.91
2023-08-07T13:00:45.765Z,71.24
2023-08-07T13:05:47.796Z,69.68
2023-08-07T13:10:50.591Z,69.91
2023-08-07T13:15:55.353Z,68.95
2023-08-07T13:20:57.994Z,69.91
2023-08-07T13:25:59.790Z,69.13
2023-08-07T13:31:01.692Z,70.78
2023-08-07T13:36:03.776Z,71.89
2023-08-07T13:41:05.783Z,71.52
2023-08-07T13:46:07.712Z,72.10
2023-08-07T13:51:09.655Z,72.62
2023-08-07T13:56:15.059Z,72.44
2023-08-07T14:01:17.023Z,73.06
2023-08-07T14:06:19.039Z,71.75
2023-08-07T14:11:21.439Z,69.96
2023-08-07T14:16:23.508Z,66.70
2023-08-07T14:21:26.183Z,67.32
2023-08-07T14:26:27.995Z,65.82
2023-08-07T14:31:29.855Z,67.19
2023-08-07T14:36:31.841Z,67.78
2023-08-07T14:41:33.706Z,69.52
2023-08-07T14:46:35.595Z,71.90
2023-08-07T14:51:37.735Z,73.66
2023-08-07T14:56:39.763Z,75.11
2023-08-07T15:01:41.827Z,77.61
2023-08-07T15:06:43.789Z,79.47
2023-08-07T15:11:46.148Z,81.08
2023-08-07T15:16:47.956Z,82.32
2023-08-07T15:21:52.297Z,82.74
2023-08-07T15:26:54.126Z,83.24
2023-08-07T15:31:56.283Z,81.47
2023-08-07T15:36:59.651Z,80.25
2023-08-07T15:42:01.919Z,78.86
2023-08-07T15:47:04.321Z,79.13
2023-08-07T15:52:06.584Z,79.69
2023-08-07T15:57:08.616Z,78.88
2023-08-07T16:02:10.653Z,76.52
2023-08-07T16:07:12.680Z,76.60
2023-08-07T16:12:14.567Z,77.29
2023-08-07T16:17:17.051Z,78.30
2023-08-07T16:22:18.933Z,78.51
2023-08-07T16:27:20.888Z,78.51
2023-08-07T16:32:22.790Z,77.79
2023-08-07T16:37:24.635Z,78.46
2023-08-07T16:42:26.853Z,79.93
2023-08-07T16:47:28.753Z,81.45
2023-08-07T16:52:30.828Z,82.01
2023-08-07T16:57:32.801Z,82.43
2023-08-07T17:02:34.671Z,82.31
2023-08-07T17:07:36.628Z,82.39
2023-08-07T17:12:38.604Z,82.82
2023-08-07T17:17:40.519Z,82.69
2023-08-07T17:22:42.567Z,82.40
2023-08-07T17:27:44.396Z,81.80
2023-08-07T17:32:46.246Z,81.22
2023-08-07T17:37:48.363Z,80.60
2023-08-07T17:42:50.291Z,80.75
2023-08-07T17:47:52.207Z,81.33
2023-08-07T17:52:55.256Z,81.77
2023-08-07T17:57:57.492Z,82.06
2023-08-07T18:02:59.660Z,82.50
2023-08-07T18:08:01.462Z,82.99
2023-08-07T18:13:03.543Z,83.67
2023-08-07T18:18:05.801Z,84.16
2023-08-07T18:23:07.823Z,84.88
2023-08-07T18:28:10.156Z,85.08
2023-08-07T18:33:12.142Z,85.51
2023-08-07T18:38:14.092Z,85.87
2023-08-07T18:43:15.925Z,86.15
2023-08-07T18:48:17.829Z,86.20
2023-08-07T18:53:20.489Z,86.41
2023-08-07T18:58:23.408Z,86.49
2023-08-07T19:03:26.097Z,86.43
2023-08-07T19:08:28.013Z,86.56
2023-08-07T19:13:30.434Z,86.62
2023-08-07T19:18:32.355Z,86.75
2023-08-07T19:23:34.272Z,86.68
2023-08-07T19:28:36.067Z,86.59
2023-08-07T19:33:40.041Z,86.61
2023-08-07T19:38:41.972Z,86.58
2023-08-07T19:43:45.264Z,86.55
2023-08-07T19:48:47.728Z,86.69
2023-08-07T19:54:01.449Z,86.65
2023-08-07T19:59:05.677Z,86.73
2023-08-07T20:04:08.147Z,86.75
2023-08-07T20:09:13.374Z,86.63
2023-08-07T20:14:15.181Z,86.71
2023-08-07T20:19:16.965Z,86.67
2023-08-07T20:24:18.913Z,86.59
2023-08-07T20:29:20.821Z,86.57
2023-08-07T20:34:22.655Z,86.68
2023-08-07T20:39:25.381Z,86.89
2023-08-07T20:44:27.493Z,86.80
2023-08-07T20:49:29.555Z,86.84
2023-08-07T20:54:31.855Z,86.83
2023-08-07T20:59:33.683Z,86.93
2023-08-07T21:04:35.694Z,87.00
2023-08-07T21:09:40.239Z,86.90
2023-08-07T21:14:42.047Z,86.97
2023-08-07T21:19:43.881Z,87.01
2023-08-07T21:24:45.894Z,87.09
2023-08-07T21:29:47.883Z,87.04
2023-08-07T21:34:49.753Z,87.00
2023-08-07T21:39:51.553Z,87.12
2023-08-07T21:44:55.149Z,87.14
2023-08-07T21:49:57.080Z,87.33
2023-08-07T21:54:58.869Z,87.46
2023-08-07T22:00:00.774Z,87.52
2023-08-07T22:05:03.986Z,87.41
2023-08-07T22:10:06.781Z,87.48
2023-08-07T22:15:09.937Z,87.48
2023-08-07T22:20:13.754Z,87.63
2023-08-07T22:25:15.772Z,87.68
2023-08-07T22:30:17.794Z,87.60
2023-08-07T22:35:20.083Z,87.55
2023-08-07T22:40:22.158Z,87.74
2023-08-07T22:45:24.077Z,87.59
2023-08-07T22:50:26.054Z,87.56
2023-08-07T22:55:27.982Z,87.33
2023-08-07T23:00:32.546Z,87.23
2023-08-07T23:05:36.854Z,87.41
2023-08-07T23:10:38.739Z,87.28
2023-08-07T23:15:41.702Z,87.03
2023-08-07T23:20:43.623Z,86.49
2023-08-07T23:25:45.528Z,86.82
2023-08-07T23:30:47.348Z,86.76
2023-08-07T23:35:49.307Z,86.70
2023-08-07T23:40:51.390Z,86.70
2023-08-07T23:45:53.407Z,86.79
2023-08-07T23:50:55.535Z,86.97
2023-08-07T23:55:57.418Z,87.13
